Terminal Aerodrome Forecast
Issued by NWS

Home | Current Version | Previous Version | Text Only | Print | Product List | Glossary On
Versions: 1 2 3 4 5 6 7 8 9 10 11 12 13 14 15
099
FTUS45 KTFX 240534
TAFBZN
TAF
KBZN 240534Z 2406/2512 24010KT P6SM VCSH SCT045 OVC100
      TEMPO 2406/2409 24020G30KT -SHRA BKN040 BKN045
     FM240900 28015G25KT P6SM VCSH SCT035 OVC080
      TEMPO 2409/2412 -SHRA BKN035 BKN040
     FM241200 27009KT P6SM -SHRA BKN040 BKN110
     FM241500 26007KT P6SM FEW040 SCT130=

USA.gov is the U.S. government's official web portal to all federal, state and local government web resources and services.